Flight Track Log - Related Links

Times and Time Zones

All times are in EDT time to prevent confusion due to time zone crossing. See the N4920G flight status page for this flight to view local times or setup timezone preferences in your user account.

Time Position Orientation Groundspeed Altitude Reporting Facility
EDT Latitude Longitude Course Direction KTS MPH feet Rate Location/Type
Tue 12:57:27 PM 33.2667 -111.7000 286° West 92 106 2,600  Level Phoenix TRACON
Tue 12:58:33 PM 33.2333 -111.7167 203° Southwest 87 100 2,900 297 Climbing Phoenix TRACON
Tue 12:59:08 PM 33.2317 -111.7269 259° West 87 100 3,100 433 Climbing Albuquerque Center
Tue 01:00:10 PM 33.2164 -111.7481 229° Southwest 85 98 3,600 387 Climbing Albuquerque Center
Tue 01:01:12 PM 33.2014 -111.7686 229° Southwest 85 98 3,900 288 Climbing Albuquerque Center
Tue 01:02:15 PM 33.1889 -111.7914 237° Southwest 83 96 4,200 339 Climbing Albuquerque Center
Tue 01:03:00 PM 33.4936 -112.2584 286° West  Level Estimated
Tue 01:03:16 PM 33.1775 -111.8167 242° Southwest 86 99 4,600  Level Albuquerque Center
Tue 01:04:18 PM 33.1658 -111.8394 239° Southwest 82 94 5,000 387 Climbing Albuquerque Center
Tue 01:05:20 PM 33.1508 -111.8658 236° Southwest 80 92 5,400 293 Climbing Albuquerque Center
Tue 01:06:21 PM 33.1372 -111.8858 231° Southwest 78 90 5,600 244 Climbing Albuquerque Center
Tue 01:07:23 PM 33.1267 -111.9097 242° Southwest 80 92 5,900 290 Climbing Albuquerque Center
Tue 01:08:25 PM 33.1175 -111.9353 247° West 84 97 6,200 194 Climbing Albuquerque Center
Tue 01:09:27 PM 33.1303 -111.9667 296° West 103 119 6,300 48 Climbing Albuquerque Center
Tue 01:10:29 PM 33.1406 -112.0003 290° West 107 123 6,300  Level Albuquerque Center
Tue 01:11:30 PM 33.1500 -112.0353 288° West 110 127 6,300  Level Albuquerque Center
Tue 01:12:32 PM 33.1608 -112.0775 287° West 112 129 6,300  Level Albuquerque Center
Tue 01:13:34 PM 33.1689 -112.1131 285° West 111 128 6,300  Level Albuquerque Center
Tue 01:14:36 PM 33.1833 -112.1461 298° West 112 129 6,300  Level Albuquerque Center
Tue 01:15:38 PM 33.1936 -112.1817 289° West 113 130 6,300 -48 Level Albuquerque Center
Tue 01:16:40 PM 33.2044 -112.2158 291° West 111 128 6,200 -49 Descending Albuquerque Center
Tue 01:17:41 PM 33.2133 -112.2506 287° West 110 127 6,200 62 Level Albuquerque Center
Tue 01:18:17 PM 33.2206 -112.2778 288° West 102 117 6,300 91 Climbing Albuquerque Center
Tue 01:18:47 PM 33.2236 -112.2947 282° West 103 119 6,300 68 Level Albuquerque Center
Tue 01:19:45 PM 33.2342 -112.3217 295° West 105 121 6,400  Climbing Albuquerque Center
Tue 01:20:47 PM 33.2436 -112.3553 289° West 106 122 6,300  Descending Albuquerque Center
Tue 01:21:49 PM 33.2550 -112.3892 292° West 109 125 6,400 -49 Climbing Albuquerque Center
Tue 01:22:50 PM 33.2644 -112.4289 286° West 113 130 6,200 -49 Descending Albuquerque Center
Tue 01:23:51 PM 33.2756 -112.4669 289° West 105 121 6,300 97 Climbing Albuquerque Center
Tue 01:24:54 PM 33.2831 -112.4928 289° West 108 124 6,400 49 Climbing Albuquerque Center
Tue 01:25:53 PM 33.2917 -112.5339 284° West 105 121 6,400 -36 Level Albuquerque Center
Tue 01:27:42 PM 33.3100 -112.5936 290° West 114 131 6,300 -35 Descending Los Angeles Center
Tue 01:28:44 PM 33.3211 -112.6292 291° West 114 131 6,300 48 Level Los Angeles Center
Tue 01:29:46 PM 33.3317 -112.6631 290° West 112 129 6,400 48 Climbing Los Angeles Center
Tue 01:30:48 PM 33.3433 -112.7033 289° West 108 124 6,400  Level Los Angeles Center
Tue 01:31:51 PM 33.3556 -112.7389 292° West 113 130 6,400 -48 Level Los Angeles Center
Tue 01:32:53 PM 33.3656 -112.7733 289° West 112 129 6,300  Descending Los Angeles Center
Tue 01:33:55 PM 33.3733 -112.8061 286° West 106 122 6,400 97 Climbing Los Angeles Center
Tue 01:34:57 PM 33.3822 -112.8397 288° West 105 121 6,500  Climbing Los Angeles Center
Tue 01:35:59 PM 33.3939 -112.8744 292° West 111 128 6,400 -48 Descending Los Angeles Center
Tue 01:37:01 PM 33.4058 -112.9164 289° West 112 129 6,400 48 Level Los Angeles Center
Tue 01:38:03 PM 33.4144 -112.9489 288° West 106 122 6,500 97 Climbing Los Angeles Center
Tue 01:39:05 PM 33.4239 -112.9811 289° West 102 117 6,600  Climbing Los Angeles Center
Tue 01:40:08 PM 33.4331 -113.0142 288° West 104 120 6,500  Descending Los Angeles Center
Tue 01:41:10 PM 33.4486 -113.0439 302° West 106 122 6,600 48 Climbing Los Angeles Center
Tue 01:42:12 PM 33.4597 -113.0844 288° West 106 122 6,600 -48 Level Los Angeles Center
Tue 01:43:15 PM 33.4694 -113.1203 288° West 110 127 6,500  Descending Los Angeles Center
Tue 01:44:16 PM 33.4792 -113.1536 289° West 109 125 6,600 98 Climbing Los Angeles Center
Tue 01:45:18 PM 33.4889 -113.1853 290° West 104 120 6,700  Climbing Los Angeles Center
Tue 01:46:20 PM 33.4978 -113.2197 287° West 107 123 6,600 -48 Descending Los Angeles Center
Tue 01:47:22 PM 33.5086 -113.2550 290° West 112 129 6,600  Level Los Angeles Center
Tue 01:48:25 PM 33.5203 -113.2964 289° West 109 125 6,600 48 Level Los Angeles Center
Tue 01:49:27 PM 33.5292 -113.3294 288° West 106 122 6,700 97 Climbing Los Angeles Center
Tue 01:50:29 PM 33.5411 -113.3622 294° West 107 123 6,800  Climbing Los Angeles Center
Tue 01:51:31 PM 33.5497 -113.3961 287° West 106 122 6,700 -48 Descending Los Angeles Center
Tue 01:52:33 PM 33.5586 -113.4311 287° West 107 123 6,700  Level Los Angeles Center
Tue 01:53:35 PM 33.5686 -113.4731 286° West 109 125 6,700 -97 Level Los Angeles Center
Tue 01:54:37 PM 33.5786 -113.5072 289° West 109 125 6,500 -97 Descending Los Angeles Center
Tue 01:55:39 PM 33.5889 -113.5422 289° West 110 127 6,500  Level Los Angeles Center
Tue 01:56:51 PM 33.6006 -113.5842 288° West 111 128 6,500  Level Albuquerque Center
Tue 01:57:53 PM 33.6058 -113.6186 280° West 107 123 6,500 48 Level Albuquerque Center
Tue 01:58:55 PM 33.6111 -113.6536 280° West 106 122 6,600 97 Climbing Albuquerque Center
Tue 01:59:57 PM 33.6175 -113.6861 283° West 105 121 6,700 48 Climbing Albuquerque Center
Tue 02:00:59 PM 33.6303 -113.7269 291° West 107 123 6,700 48 Level Albuquerque Center
Tue 02:02:01 PM 33.6386 -113.7608 286° West 107 123 6,800 49 Climbing Albuquerque Center
Tue 02:03:02 PM 33.6492 -113.7942 291° West 106 122 6,800  Level Albuquerque Center
Tue 02:04:04 PM 33.6608 -113.8292 292° West 110 127 6,800  Level Albuquerque Center
Tue 02:05:06 PM 33.6733 -113.8628 294° West 110 127 6,800 -48 Level Albuquerque Center
Tue 02:06:08 PM 33.6894 -113.8967 300° West 114 131 6,700 -97 Descending Albuquerque Center
Tue 02:07:10 PM 33.7019 -113.9422 288° West 118 136 6,600  Descending Albuquerque Center
Tue 02:08:12 PM 33.7100 -113.9775 285° West 113 130 6,700 49 Climbing Albuquerque Center
Tue 02:09:13 PM 33.7147 -114.0172 278° West 114 131 6,700 49 Level Albuquerque Center
Tue 02:10:15 PM 33.7203 -114.0531 281° West 114 131 6,800  Climbing Albuquerque Center
Tue 02:11:17 PM 33.7289 -114.0878 287° West 112 129 6,700 -48 Descending Albuquerque Center
Tue 02:12:19 PM 33.7389 -114.1239 288° West 113 130 6,700 -62 Level Albuquerque Center
Tue 02:14:31 PM 33.7642 -114.2031 291° West 118 136 6,500 -32 Descending Los Angeles Center
Tue 02:15:24 PM 33.7772 -114.2397 293° West 118 136 6,600 52 Climbing Albuquerque Center
Tue 02:16:26 PM 33.7900 -114.2756 293° West 118 136 6,600 -48 Level Albuquerque Center
Tue 02:17:28 PM 33.7994 -114.3108 288° West 115 132 6,500  Descending Albuquerque Center
Tue 02:18:29 PM 33.8069 -114.3450 285° West 107 123 6,600 45 Climbing Albuquerque Center
Tue 02:19:42 PM 33.8153 -114.3919 282° West 113 130 6,600 44 Level Los Angeles Center
Tue 02:20:44 PM 33.8208 -114.4261 281° West 107 123 6,700 145 Climbing Los Angeles Center
Tue 02:21:46 PM 33.8278 -114.4600 284° West 104 120 6,900 48 Climbing Los Angeles Center
Tue 02:22:48 PM 33.8350 -114.5028 282° West 109 125 6,800 -96 Descending Los Angeles Center
Tue 02:23:51 PM 33.8461 -114.5397 290° West 114 131 6,700 -96 Descending Los Angeles Center
Tue 02:24:53 PM 33.8603 -114.5767 295° West 119 137 6,600 -48 Descending Los Angeles Center
Tue 02:25:55 PM 33.8772 -114.6092 302° West 117 135 6,600 48 Level Los Angeles Center
Tue 02:26:57 PM 33.8900 -114.6444 294° West 117 135 6,700 -48 Climbing Los Angeles Center
Tue 02:27:59 PM 33.9022 -114.6800 293° West 116 133 6,500 -97 Descending Los Angeles Center
Tue 02:29:01 PM 33.9150 -114.7236 289° West 117 135 6,500  Level Los Angeles Center
Tue 02:30:03 PM 33.9219 -114.7592 283° West 115 132 6,500  Level Los Angeles Center
Tue 02:31:05 PM 33.9269 -114.7953 279° West 114 131 6,500  Level Los Angeles Center
Tue 02:32:07 PM 33.9364 -114.8300 288° West 111 128 6,500 -48 Level Los Angeles Center
Tue 02:33:09 PM 33.9486 -114.8644 293° West 110 127 6,400 -48 Descending Los Angeles Center
Tue 02:34:12 PM 33.9622 -114.9086 290° West 113 130 6,400  Level Los Angeles Center
Tue 02:35:14 PM 33.9711 -114.9428 287° West 113 130 6,400  Level Los Angeles Center
Tue 02:36:16 PM 33.9775 -114.9783 282° West 111 128 6,400  Level Los Angeles Center
Tue 02:37:18 PM 33.9817 -115.0133 278° West 110 127 6,400 48 Level Los Angeles Center
Tue 02:38:20 PM 33.9836 -115.0492 274° West 110 127 6,500 48 Climbing Los Angeles Center
Tue 02:39:23 PM 33.9878 -115.0817 279° West 105 121 6,500 96 Level Los Angeles Center
Tue 02:40:25 PM 33.9994 -115.1225 289° West 104 120 6,700 97 Climbing Los Angeles Center
Tue 02:41:27 PM 34.0064 -115.1575 283° West 106 122 6,700 -48 Level Los Angeles Center
Tue 02:42:29 PM 34.0142 -115.1925 285° West 107 123 6,600 -48 Descending Los Angeles Center
Tue 02:43:31 PM 34.0242 -115.2289 288° West 109 125 6,600 48 Level Los Angeles Center
Tue 02:44:33 PM 34.0331 -115.2642 287° West 110 127 6,700  Climbing Los Angeles Center
Tue 02:45:36 PM 34.0442 -115.3042 289° West 108 124 6,600 -48 Descending Los Angeles Center
Tue 02:46:38 PM 34.0564 -115.3392 293° West 109 125 6,600 -49 Level Los Angeles Center
Tue 02:47:39 PM 34.0692 -115.3744 294° West 111 128 6,500 -145 Descending Los Angeles Center
Tue 02:48:42 PM 34.0764 -115.4114 283° West 113 130 6,300 -96 Descending Los Angeles Center
Tue 02:49:44 PM 34.0833 -115.4475 283° West 113 130 6,300  Level Los Angeles Center
Tue 02:50:46 PM 34.0922 -115.4811 288° West 110 127 6,300  Level Los Angeles Center
Tue 02:51:48 PM 34.1003 -115.5219 283° West 109 125 6,300 97 Level Los Angeles Center
Tue 02:52:50 PM 34.0903 -115.5539 249° West 106 122 6,500 194 Climbing Los Angeles Center
Tue 02:53:52 PM 34.0853 -115.5847 259° West 99 114 6,700 97 Climbing Los Angeles Center
Tue 02:54:54 PM 34.0847 -115.6181 269° West 97 112 6,700 48 Level Los Angeles Center
Tue 02:55:57 PM 34.0842 -115.6531 269° West 99 114 6,800 144 Climbing Los Angeles Center
Tue 02:56:59 PM 34.0875 -115.6933 276° West 100 115 7,000 48 Climbing Los Angeles Center
Tue 02:58:01 PM 34.0956 -115.7272 286° West 101 116 6,900 -48 Descending Los Angeles Center
Tue 02:59:03 PM 34.1100 -115.7611 297° West 106 122 6,900 48 Level Los Angeles Center
Tue 03:00:05 PM 34.1161 -115.7956 282° West 107 123 7,000 97 Climbing Los Angeles Center
Tue 03:01:07 PM 34.1203 -115.8289 279° West 105 121 7,100 96 Climbing Los Angeles Center
Tue 03:02:10 PM 34.1233 -115.8642 276° West 104 120 7,200 96 Climbing Los Angeles Center
Tue 03:03:12 PM 34.1264 -115.9069 275° West 106 122 7,300 97 Climbing Los Angeles Center
Tue 03:04:14 PM 34.1311 -115.9417 279° West 106 122 7,400 48 Climbing Los Angeles Center
Tue 03:05:16 PM 34.1339 -115.9769 275° West 106 122 7,400  Level Los Angeles Center
Tue 03:06:18 PM 34.1358 -116.0111 274° West 106 122 7,400  Level Los Angeles Center

Login

Don't have an account? Register now (free) for customized features, flight alerts, and more!